Time;durP1;ratioP1;P1;durP2;ratioP2;P2;SDS_P1;SDS_P2;PMS_P1;PMS_P2;Temp;Humidity;BMP_temperature;BMP_pressure;BME280_temperature;BME280_humidity;BME280_pressure;Samples;Min_cycle;Max_cycle;Signal;HPM_P1;HPM_P2
2022/10/18 00:01:06;;;;;;;22.75;15.73;;;16.00;99.90;;;;;;5117302;28;20036;-74
2022/10/18 00:03:33;;;;;;;27.17;16.80;;;16.00;99.90;;;;;;5116876;28;20114;-74
2022/10/18 00:05:59;;;;;;;38.63;20.02;;;16.00;99.90;;;;;;5117234;28;20421;-73
2022/10/18 00:08:26;;;;;;;50.60;22.27;;;16.00;99.90;;;;;;5117444;28;20043;-73
2022/10/18 00:10:52;;;;;;;163.43;32.65;;;16.00;99.90;;;;;;5117426;28;20336;-73
2022/10/18 00:13:18;;;;;;;39.55;20.67;;;16.00;99.90;;;;;;5117292;28;20115;-74
2022/10/18 00:15:53;;;;;;;25.98;17.73;;;15.90;99.90;;;;;;5117314;28;20036;-74
2022/10/18 00:18:19;;;;;;;23.58;15.52;;;15.90;99.90;;;;;;5117155;28;20042;-74
2022/10/18 00:20:54;;;;;;;28.60;17.85;;;15.90;99.90;;;;;;5117342;28;20028;-73
2022/10/18 00:23:20;;;;;;;22.35;15.93;;;15.90;99.90;;;;;;5116896;28;20442;-73
2022/10/18 00:25:45;;;;;;;27.90;17.85;;;15.90;99.90;;;;;;5117050;28;20075;-73
2022/10/18 00:28:11;;;;;;;25.70;15.35;;;15.80;99.90;;;;;;5116990;28;20036;-73
2022/10/18 00:30:37;;;;;;;35.70;19.10;;;15.80;99.90;;;;;;5117205;28;20043;-73
2022/10/18 00:33:03;;;;;;;28.67;16.67;;;15.80;99.90;;;;;;5116906;28;20035;-75
2022/10/18 00:35:28;;;;;;;40.28;20.40;;;15.80;99.90;;;;;;5098433;28;20079;-73
2022/10/18 00:37:54;;;;;;;81.45;24.58;;;15.80;99.90;;;;;;5116904;28;20074;-73
2022/10/18 00:40:20;;;;;;;21.90;14.65;;;15.80;99.90;;;;;;5117191;28;20040;-73
2022/10/18 00:42:45;;;;;;;29.35;16.58;;;15.80;99.90;;;;;;5099159;28;20416;-73
2022/10/18 00:45:16;;;;;;;25.88;14.70;;;15.80;99.90;;;;;;5117068;28;20058;-73
2022/10/18 00:47:46;;;;;;;58.45;21.90;;;15.70;99.90;;;;;;5117081;28;20367;-73
2022/10/18 00:50:12;;;;;;;23.27;15.65;;;15.70;99.90;;;;;;5116784;28;20035;-73
2022/10/18 00:52:43;;;;;;;21.63;15.60;;;15.60;99.90;;;;;;5117012;28;20086;-73
2022/10/18 00:55:10;;;;;;;27.13;15.57;;;15.60;99.90;;;;;;5116960;28;20040;-73
2022/10/18 00:57:37;;;;;;;21.85;15.02;;;15.70;99.90;;;;;;5098746;28;20050;-73
2022/10/18 01:00:08;;;;;;;54.03;20.70;;;15.70;99.90;;;;;;5116668;28;20044;-73
2022/10/18 01:02:35;;;;;;;18.73;12.50;;;15.70;99.90;;;;;;5098669;28;20044;-74
2022/10/18 01:05:02;;;;;;;20.92;14.23;;;15.60;99.90;;;;;;5102271;28;20039;-73
2022/10/18 01:08:02;;;;;;;28.30;17.08;;;15.60;99.90;;;;;;5120925;28;20046;-73
2022/10/18 01:10:41;;;;;;;76.50;22.63;;;15.60;99.90;;;;;;5106933;28;20048;-73
2022/10/18 01:13:33;;;;;;;33.20;18.20;;;15.60;99.90;;;;;;5120848;28;20086;-74
2022/10/18 01:16:26;;;;;;;34.58;19.65;;;15.60;99.90;;;;;;5102429;28;20044;-74
2022/10/18 01:19:05;;;;;;;30.65;17.08;;;15.60;99.90;;;;;;5102421;28;20425;-74
2022/10/18 01:21:37;;;;;;;73.68;22.52;;;15.70;99.90;;;;;;5102379;28;20482;-74
2022/10/18 01:24:17;;;;;;;36.05;18.33;;;15.70;99.90;;;;;;5120672;28;20397;-73
2022/10/18 01:26:59;;;;;;;297.00;36.25;;;15.80;99.90;;;;;;5120547;28;20078;-73
2022/10/18 01:29:59;;;;;;;31.48;18.08;;;15.70;99.90;;;;;;5102472;28;20073;-73
2022/10/18 01:32:33;;;;;;;206.27;30.73;;;15.50;99.90;;;;;;5102384;28;20306;-73
2022/10/18 01:35:03;;;;;;;29.00;18.70;;;15.50;99.90;;;;;;5119990;28;20082;-74
2022/10/18 01:37:31;;;;;;;77.47;24.67;;;15.50;99.90;;;;;;5085131;28;20039;-74
2022/10/18 01:39:59;;;;;;;230.27;31.70;;;15.50;99.90;;;;;;5120311;28;20078;-74
2022/10/18 01:42:25;;;;;;;31.45;18.92;;;15.50;99.90;;;;;;5119963;28;20454;-73
2022/10/18 01:44:52;;;;;;;33.67;19.60;;;15.60;99.90;;;;;;5120217;28;20050;-73
2022/10/18 01:47:20;;;;;;;32.10;19.83;;;15.60;99.90;;;;;;5101768;28;20048;-74
2022/10/18 01:49:46;;;;;;;322.65;42.42;;;15.60;99.90;;;;;;5120128;28;20050;-73
2022/10/18 01:52:13;;;;;;;110.75;29.08;;;15.60;99.90;;;;;;5120076;28;20039;-74
2022/10/18 01:54:43;;;;;;;44.95;22.60;;;15.50;99.90;;;;;;5119988;28;20114;-73
2022/10/18 01:57:24;;;;;;;117.63;24.70;;;15.50;99.90;;;;;;5120010;28;20126;-73
2022/10/18 02:00:17;;;;;;;153.48;30.75;;;15.50;99.90;;;;;;5119970;28;20032;-74
2022/10/18 02:02:52;;;;;;;128.88;25.60;;;15.50;99.90;;;;;;5119536;28;20443;-74
2022/10/18 02:05:30;;;;;;;405.98;39.25;;;15.50;99.90;;;;;;5119451;28;20386;-74
2022/10/18 02:08:33;;;;;;;45.83;19.35;;;15.60;99.90;;;;;;5119927;28;20036;-73
2022/10/18 02:11:03;;;;;;;203.50;31.23;;;15.60;99.90;;;;;;5119591;28;20035;-74
2022/10/18 02:13:38;;;;;;;61.13;20.33;;;15.60;99.90;;;;;;5119674;28;20044;-74
2022/10/18 02:16:09;;;;;;;58.05;23.95;;;15.50;99.90;;;;;;5119268;28;20448;-74
2022/10/18 02:18:47;;;;;;;37.70;22.05;;;15.60;99.90;;;;;;5119604;28;20036;-74
2022/10/18 02:21:16;;;;;;;162.80;28.67;;;15.60;99.90;;;;;;5119496;28;20036;-73
2022/10/18 02:23:44;;;;;;;56.83;22.13;;;15.60;99.90;;;;;;5119029;28;20052;-74
2022/10/18 02:26:11;;;;;;;201.60;32.92;;;15.70;99.90;;;;;;5119421;28;20097;-73
2022/10/18 02:28:38;;;;;;;83.40;26.35;;;15.60;99.90;;;;;;5119381;28;20042;-73
2022/10/18 02:31:12;;;;;;;80.32;26.05;;;15.70;99.90;;;;;;5119299;28;20039;-74
2022/10/18 02:33:51;;;;;;;90.80;26.02;;;15.80;99.90;;;;;;5118884;28;20040;-74
2022/10/18 02:36:31;;;;;;;44.65;21.80;;;15.80;99.90;;;;;;5119311;28;20050;-73
2022/10/18 02:39:05;;;;;;;118.82;24.27;;;15.70;99.90;;;;;;5100836;28;20044;-73
2022/10/18 02:41:31;;;;;;;45.05;18.92;;;15.70;99.90;;;;;;5101996;28;20093;-73
2022/10/18 02:43:57;;;;;;;65.88;20.30;;;15.70;99.90;;;;;;5119075;28;20035;-73
2022/10/18 02:46:23;;;;;;;105.72;24.38;;;15.50;99.90;;;;;;5119041;28;20042;-73
2022/10/18 02:48:49;;;;;;;309.23;37.00;;;15.50;99.90;;;;;;5118956;28;20309;-73
2022/10/18 02:51:15;;;;;;;51.78;20.52;;;15.60;99.90;;;;;;5118917;28;20044;-73
2022/10/18 02:53:40;;;;;;;44.75;20.20;;;15.60;99.90;;;;;;5118764;28;20059;-73
2022/10/18 02:56:07;;;;;;;77.95;24.23;;;15.70;99.90;;;;;;5118856;28;20333;-73
2022/10/18 02:58:32;;;;;;;30.38;19.42;;;15.70;99.90;;;;;;5118773;28;20043;-73
2022/10/18 03:00:58;;;;;;;33.80;18.77;;;15.70;99.90;;;;;;5118472;28;20047;-73
2022/10/18 03:03:24;;;;;;;148.05;24.60;;;15.70;99.90;;;;;;5117986;28;20110;-75
2022/10/18 03:05:51;;;;;;;22.77;17.48;;;15.70;99.90;;;;;;5100252;28;20043;-74
2022/10/18 03:08:17;;;;;;;129.00;26.20;;;15.60;99.90;;;;;;5118593;28;20430;-74
2022/10/18 03:10:44;;;;;;;55.75;21.83;;;15.60;99.90;;;;;;5100306;28;20067;-74
2022/10/18 03:13:09;;;;;;;89.40;23.05;;;15.70;99.90;;;;;;5100187;28;20116;-74
2022/10/18 03:15:35;;;;;;;34.40;18.58;;;15.70;99.90;;;;;;5118358;28;20086;-74
2022/10/18 03:18:01;;;;;;;53.80;21.33;;;15.70;99.90;;;;;;5100495;28;20047;-74
2022/10/18 03:20:27;;;;;;;59.05;18.95;;;15.70;99.90;;;;;;5118330;28;20042;-73
2022/10/18 03:22:52;;;;;;;363.05;39.72;;;15.80;99.90;;;;;;5117903;28;20058;-73
2022/10/18 03:25:18;;;;;;;128.65;26.00;;;15.70;99.90;;;;;;5118129;28;20035;-74
2022/10/18 03:27:44;;;;;;;33.50;19.65;;;15.70;99.90;;;;;;5117805;28;20117;-74
2022/10/18 03:30:10;;;;;;;54.85;22.73;;;15.70;99.90;;;;;;5099844;28;20040;-74
2022/10/18 03:32:37;;;;;;;63.35;21.30;;;15.70;99.90;;;;;;5118151;28;20114;-73
2022/10/18 03:35:04;;;;;;;130.88;24.58;;;15.70;99.90;;;;;;5099388;28;20050;-74
2022/10/18 03:37:30;;;;;;;52.80;20.85;;;15.70;99.90;;;;;;5118002;28;20044;-74
2022/10/18 03:39:55;;;;;;;89.03;24.55;;;15.80;99.90;;;;;;5117984;28;20031;-74
2022/10/18 03:42:21;;;;;;;56.75;21.17;;;15.80;99.90;;;;;;5117651;28;20085;-74
2022/10/18 03:44:47;;;;;;;67.47;21.75;;;15.80;99.90;;;;;;5117872;28;20126;-73
2022/10/18 03:47:13;;;;;;;94.60;25.10;;;15.80;99.90;;;;;;5117889;28;20075;-73
2022/10/18 03:49:38;;;;;;;199.60;30.40;;;15.80;99.90;;;;;;5117786;28;20089;-73
2022/10/18 03:52:04;;;;;;;44.45;21.58;;;15.80;99.90;;;;;;5099916;28;20043;-74
2022/10/18 03:54:30;;;;;;;29.33;19.35;;;15.70;99.90;;;;;;5117685;28;20332;-73
2022/10/18 03:56:56;;;;;;;58.95;24.13;;;15.70;99.90;;;;;;5117666;28;20031;-73
2022/10/18 03:59:21;;;;;;;32.35;19.17;;;15.70;99.90;;;;;;5099290;28;20039;-73
2022/10/18 04:01:50;;;;;;;96.57;27.15;;;15.80;99.90;;;;;;5117614;28;20040;-73
2022/10/18 04:04:16;;;;;;;79.57;23.02;;;15.80;99.90;;;;;;5116871;28;20042;-74
2022/10/18 04:06:41;;;;;;;43.40;19.55;;;15.70;99.90;;;;;;5117526;28;20036;-74
2022/10/18 04:09:07;;;;;;;37.40;19.27;;;15.60;99.90;;;;;;5117240;28;20128;-73
2022/10/18 04:11:33;;;;;;;226.82;33.30;;;15.50;99.90;;;;;;5099258;28;20043;-74
2022/10/18 04:13:58;;;;;;;40.97;19.77;;;15.40;99.90;;;;;;5114299;28;20075;-74
2022/10/18 04:16:24;;;;;;;178.35;31.42;;;15.40;99.90;;;;;;5115567;28;20122;-76
2022/10/18 04:18:50;;;;;;;74.15;22.90;;;15.50;99.90;;;;;;5117128;28;20465;-74
2022/10/18 04:21:15;;;;;;;80.80;25.08;;;15.50;99.90;;;;;;5117357;28;20367;-73
2022/10/18 04:23:41;;;;;;;49.97;21.17;;;15.50;99.90;;;;;;5116903;28;20052;-73
2022/10/18 04:26:07;;;;;;;32.03;19.08;;;15.50;99.90;;;;;;5117049;28;20433;-73
2022/10/18 04:28:34;;;;;;;79.43;22.42;;;15.50;99.90;;;;;;5116967;28;20071;-74
2022/10/18 04:30:59;;;;;;;135.38;28.13;;;15.60;99.90;;;;;;5098933;28;20379;-73
2022/10/18 04:33:25;;;;;;;181.65;30.02;;;15.60;99.90;;;;;;5116875;28;20039;-73
2022/10/18 04:35:52;;;;;;;162.80;27.02;;;15.60;99.90;;;;;;5116133;28;20047;-73
2022/10/18 04:38:19;;;;;;;139.82;27.50;;;15.50;99.90;;;;;;5118007;28;20031;-73
2022/10/18 04:40:45;;;;;;;157.80;29.45;;;15.40;99.90;;;;;;5121002;28;20071;-73
2022/10/18 04:43:11;;;;;;;87.75;26.35;;;15.30;99.90;;;;;;5121077;28;20467;-73
2022/10/18 04:45:37;;;;;;;111.95;25.90;;;15.30;99.90;;;;;;5121362;28;20071;-73
2022/10/18 04:48:03;;;;;;;188.45;39.35;;;15.30;99.90;;;;;;5121304;28;20424;-73
2022/10/18 04:50:28;;;;;;;203.95;52.33;;;15.10;99.90;;;;;;5121318;28;20050;-73
2022/10/18 04:52:54;;;;;;;76.82;40.25;;;15.00;99.90;;;;;;5121206;28;20031;-74
2022/10/18 04:55:20;;;;;;;38.97;22.98;;;14.90;99.90;;;;;;5121098;28;20417;-73
2022/10/18 04:57:45;;;;;;;263.88;49.50;;;15.00;99.90;;;;;;5121131;28;20080;-73
2022/10/18 05:00:12;;;;;;;147.77;32.47;;;15.10;99.90;;;;;;5103137;28;20044;-73
2022/10/18 05:02:37;;;;;;;141.98;33.42;;;15.10;99.90;;;;;;5121014;28;20051;-73
2022/10/18 05:05:03;;;;;;;232.75;40.58;;;14.90;99.90;;;;;;5120573;28;20040;-73
2022/10/18 05:07:29;;;;;;;345.35;57.15;;;14.90;99.90;;;;;;5120643;28;20051;-73
2022/10/18 05:09:55;;;;;;;273.52;48.08;;;14.80;99.90;;;;;;5102844;28;20043;-73
2022/10/18 05:12:21;;;;;;;305.77;57.45;;;14.70;99.90;;;;;;5120883;28;20336;-74
2022/10/18 05:14:47;;;;;;;149.95;37.03;;;14.70;99.90;;;;;;5120421;28;20047;-74
2022/10/18 05:17:13;;;;;;;95.32;26.45;;;14.70;99.90;;;;;;5102356;28;20040;-74
2022/10/18 05:19:39;;;;;;;65.90;27.50;;;14.80;99.90;;;;;;5120766;28;20396;-73
2022/10/18 05:22:04;;;;;;;270.23;42.10;;;14.70;99.90;;;;;;5120449;28;20032;-74
2022/10/18 05:24:30;;;;;;;256.42;42.13;;;14.70;99.90;;;;;;5120657;28;20048;-73
2022/10/18 05:26:57;;;;;;;282.02;50.17;;;14.60;99.90;;;;;;5120571;28;20040;-73
2022/10/18 05:29:23;;;;;;;52.33;25.15;;;14.60;99.90;;;;;;5120551;28;20043;-73
2022/10/18 05:31:49;;;;;;;48.95;21.00;;;14.40;99.90;;;;;;5120211;28;20040;-74
2022/10/18 05:34:15;;;;;;;187.05;29.75;;;14.50;99.90;;;;;;5119977;28;20040;-74
2022/10/18 05:36:41;;;;;;;147.77;29.83;;;14.60;99.90;;;;;;5120304;28;20058;-73
2022/10/18 05:39:06;;;;;;;142.05;25.00;;;14.50;99.90;;;;;;5120267;28;20036;-73
2022/10/18 05:41:32;;;;;;;63.08;23.13;;;14.50;99.90;;;;;;5102225;28;20055;-73
2022/10/18 05:44:01;;;;;;;314.65;40.78;;;14.40;99.90;;;;;;5120149;28;20036;-73
2022/10/18 05:46:26;;;;;;;188.93;28.90;;;14.40;99.90;;;;;;5120200;28;20067;-74
2022/10/18 05:48:52;;;;;;;65.53;18.23;;;14.40;99.90;;;;;;5101585;28;20369;-74
2022/10/18 05:51:18;;;;;;;57.70;15.73;;;14.40;99.90;;;;;;5120115;28;20074;-73
2022/10/18 05:53:44;;;;;;;169.23;22.00;;;14.50;99.90;;;;;;5120060;28;20035;-73
2022/10/18 05:56:13;;;;;;;76.95;15.48;;;14.60;99.90;;;;;;5119914;28;20443;-74
2022/10/18 05:58:40;;;;;;;28.10;13.57;;;14.40;99.90;;;;;;5119662;28;20432;-73
2022/10/18 06:01:06;;;;;;;31.63;13.77;;;14.30;99.90;;;;;;5119919;28;20032;-73
2022/10/18 06:03:33;;;;;;;37.20;14.10;;;14.50;99.90;;;;;;5119595;28;20441;-73
2022/10/18 06:06:04;;;;;;;30.88;14.20;;;14.40;99.90;;;;;;5119228;28;20047;-73
2022/10/18 06:08:31;;;;;;;27.77;14.75;;;14.40;99.90;;;;;;5084552;28;20126;-73
2022/10/18 06:10:57;;;;;;;34.33;14.35;;;14.20;99.90;;;;;;5119818;28;20043;-72
2022/10/18 06:13:23;;;;;;;18.67;12.43;;;14.20;99.90;;;;;;5101385;28;20071;-73
2022/10/18 06:15:49;;;;;;;27.23;13.48;;;14.30;99.90;;;;;;5101264;28;20124;-73
2022/10/18 06:18:14;;;;;;;25.42;11.77;;;14.30;99.90;;;;;;5101545;28;20046;-73
2022/10/18 06:20:40;;;;;;;18.08;11.68;;;14.10;99.90;;;;;;5084476;28;20431;-72
2022/10/18 06:23:06;;;;;;;84.97;17.67;;;14.10;99.90;;;;;;5101137;28;20043;-72
2022/10/18 06:25:32;;;;;;;19.67;11.80;;;14.20;99.90;;;;;;5101485;28;20432;-72
2022/10/18 06:27:57;;;;;;;18.17;11.55;;;14.20;99.90;;;;;;5101111;28;20079;-70
2022/10/18 06:30:23;;;;;;;29.55;12.60;;;14.00;99.90;;;;;;5101188;28;20036;-70
2022/10/18 06:32:48;;;;;;;38.88;14.38;;;13.90;99.90;;;;;;5119311;28;20038;-72
2022/10/18 06:35:14;;;;;;;27.17;12.88;;;14.00;99.90;;;;;;5118849;28;20047;-73
2022/10/18 06:37:40;;;;;;;25.02;11.30;;;14.10;99.90;;;;;;5101290;28;20035;-72
2022/10/18 06:40:06;;;;;;;13.38;9.85;;;14.20;99.90;;;;;;5119196;28;20298;-73
2022/10/18 06:42:32;;;;;;;14.75;10.38;;;14.20;99.90;;;;;;5119295;28;20039;-73
2022/10/18 06:44:59;;;;;;;20.20;11.10;;;14.20;99.90;;;;;;5118782;28;20044;-72
2022/10/18 06:47:25;;;;;;;24.75;11.30;;;14.20;99.90;;;;;;5119029;28;20043;-72
2022/10/18 06:49:50;;;;;;;16.50;8.75;;;14.10;99.90;;;;;;5118976;28;20039;-72
2022/10/18 06:52:17;;;;;;;28.73;9.98;;;14.10;99.90;;;;;;5118623;28;20039;-72
2022/10/18 06:54:42;;;;;;;177.82;20.85;;;14.20;99.90;;;;;;5118779;28;20044;-73
2022/10/18 06:57:08;;;;;;;30.15;9.43;;;14.30;99.90;;;;;;5120196;28;20035;-74
2022/10/18 06:59:34;;;;;;;119.88;16.48;;;14.20;99.90;;;;;;5121497;28;20328;-73
2022/10/18 07:01:59;;;;;;;48.50;12.45;;;14.20;99.90;;;;;;5117576;28;20038;-74
2022/10/18 07:04:29;;;;;;;91.78;17.58;;;14.00;99.90;;;;;;5118247;28;20043;-72
2022/10/18 07:06:55;;;;;;;125.85;18.85;;;13.90;99.90;;;;;;5118554;28;20050;-72
2022/10/18 07:09:20;;;;;;;148.45;21.50;;;13.90;99.90;;;;;;5118243;28;20198;-72
2022/10/18 07:11:46;;;;;;;76.45;15.73;;;13.80;99.90;;;;;;5118239;28;20079;-73
2022/10/18 07:14:11;;;;;;;29.95;12.05;;;13.70;99.90;;;;;;5118113;28;20035;-73
2022/10/18 07:16:37;;;;;;;38.70;13.02;;;13.60;99.90;;;;;;5118405;28;20039;-73
2022/10/18 07:19:03;;;;;;;77.68;15.57;;;13.80;99.90;;;;;;5118107;28;20405;-73
2022/10/18 07:21:29;;;;;;;23.27;11.23;;;13.90;99.90;;;;;;5118339;28;20113;-72
2022/10/18 07:23:55;;;;;;;22.33;10.25;;;13.90;99.90;;;;;;5117861;28;20052;-73
2022/10/18 07:26:25;;;;;;;32.83;12.27;;;13.80;99.90;;;;;;5118278;28;20052;-72
2022/10/18 07:28:59;;;;;;;33.80;11.73;;;13.90;99.90;;;;;;5118221;28;20050;-72
2022/10/18 07:31:25;;;;;;;15.57;9.18;;;13.90;99.90;;;;;;5118179;28;20043;-72
2022/10/18 07:33:52;;;;;;;17.98;10.27;;;14.00;99.90;;;;;;5117375;28;20044;-72
2022/10/18 07:36:18;;;;;;;17.30;8.18;;;14.10;99.90;;;;;;5118100;28;20043;-72
2022/10/18 07:38:43;;;;;;;14.98;8.27;;;14.20;99.90;;;;;;5117991;28;20097;-72
2022/10/18 07:41:11;;;;;;;14.88;8.73;;;14.10;99.90;;;;;;5117756;28;20040;-71
2022/10/18 07:43:41;;;;;;;21.95;10.85;;;14.10;99.90;;;;;;5099624;28;20460;-72
2022/10/18 07:46:06;;;;;;;37.42;12.15;;;14.10;99.90;;;;;;5117576;28;20168;-72
2022/10/18 07:48:32;;;;;;;16.13;8.82;;;14.20;99.90;;;;;;5117891;28;20071;-72
2022/10/18 07:50:59;;;;;;;15.70;8.63;;;13.90;99.90;;;;;;5117794;28;20084;-72
2022/10/18 07:53:26;;;;;;;13.95;7.72;;;13.90;99.90;;;;;;5110026;28;20043;-73
2022/10/18 07:55:55;;;;;;;14.00;8.52;;;13.90;99.90;;;;;;5105621;28;20035;-72
2022/10/18 07:58:20;;;;;;;14.70;8.57;;;14.00;99.90;;;;;;5117761;28;20126;-72
2022/10/18 08:00:46;;;;;;;13.15;7.88;;;14.20;99.90;;;;;;5100904;28;20140;-73
2022/10/18 08:03:12;;;;;;;16.40;8.30;;;14.10;99.90;;;;;;5104282;28;20450;-73
2022/10/18 08:05:37;;;;;;;15.10;8.05;;;14.20;99.90;;;;;;5115695;28;20117;-71
2022/10/18 08:08:12;;;;;;;13.85;7.20;;;14.20;99.90;;;;;;5099517;28;20417;-71
2022/10/18 08:10:38;;;;;;;16.30;8.52;;;14.30;99.90;;;;;;5114821;28;20067;-72
2022/10/18 08:13:03;;;;;;;18.40;8.48;;;14.30;99.90;;;;;;5097613;28;20075;-73
2022/10/18 08:15:35;;;;;;;8.43;4.13;;;14.40;99.90;;;;;;5116982;28;20051;-72
2022/10/18 08:18:01;;;;;;;16.90;8.95;;;14.40;99.90;;;;;;5117403;28;20043;-72
2022/10/18 08:20:27;;;;;;;11.30;7.13;;;14.40;99.90;;;;;;5117376;28;20114;-72
2022/10/18 08:22:53;;;;;;;14.40;7.35;;;14.50;99.90;;;;;;5117003;28;20062;-73
2022/10/18 08:25:18;;;;;;;19.48;8.90;;;14.50;99.90;;;;;;5098970;28;20047;-75
2022/10/18 08:27:44;;;;;;;13.65;6.63;;;14.40;99.90;;;;;;5117088;28;20044;-89
2022/10/18 08:30:10;;;;;;;22.73;10.07;;;14.50;99.90;;;;;;5082416;28;20071;-72
2022/10/18 08:32:36;;;;;;;22.50;10.68;;;14.40;99.90;;;;;;5117224;28;20036;-72
2022/10/18 08:35:01;;;;;;;9.30;5.25;;;14.30;99.90;;;;;;5117049;28;20044;-89
2022/10/18 08:37:27;;;;;;;16.83;8.35;;;14.20;99.90;;;;;;5065601;28;20071;-89
2022/10/18 08:39:53;;;;;;;12.82;6.90;;;14.30;99.90;;;;;;5082976;28;20035;-79
2022/10/18 08:42:46;;;;;;;12.18;6.78;;;14.40;99.90;;;;;;5117871;28;20099;-89
2022/10/18 08:45:12;;;;;;;19.10;9.70;;;14.60;99.90;;;;;;5098977;28;20086;-72
2022/10/18 08:47:43;;;;;;;21.63;9.68;;;14.60;99.90;;;;;;5117149;28;20075;-72
2022/10/18 08:50:25;;;;;;;23.13;10.55;;;14.40;99.90;;;;;;5116870;28;20036;-72
2022/10/18 08:53:04;;;;;;;22.13;9.40;;;14.30;99.90;;;;;;5117149;28;20332;-73
2022/10/18 08:55:45;;;;;;;18.15;8.00;;;14.40;99.90;;;;;;5098694;28;20476;-73
2022/10/18 08:58:25;;;;;;;25.50;8.77;;;14.40;99.90;;;;;;5117072;28;20118;-73
2022/10/18 09:01:06;;;;;;;17.13;8.60;;;14.60;99.90;;;;;;5116059;28;20132;-72
2022/10/18 09:04:00;;;;;;;20.65;9.10;;;14.60;99.90;;;;;;5116964;28;20071;-72
2022/10/18 09:06:34;;;;;;;24.20;8.80;;;14.70;99.90;;;;;;5116682;28;20046;-72
2022/10/18 09:09:15;;;;;;;17.27;8.27;;;14.60;99.90;;;;;;5116946;28;20039;-73
2022/10/18 09:11:50;;;;;;;15.15;6.13;;;14.70;99.90;;;;;;5117273;28;20043;-90
2022/10/18 09:14:43;;;;;;;13.00;5.35;;;14.80;99.90;;;;;;5099204;28;20044;-90
2022/10/18 09:17:32;;;;;;;14.35;5.00;;;14.40;99.90;;;;;;5082414;28;20429;-89
2022/10/18 09:20:12;;;;;;;10.88;4.55;;;14.50;99.90;;;;;;5086068;28;20054;-89
2022/10/18 09:22:53;;;;;;;21.45;5.38;;;14.70;99.90;;;;;;5081836;28;20058;-71
2022/10/18 09:25:34;;;;;;;15.82;3.60;;;14.90;99.90;;;;;;5119271;28;20055;-71
2022/10/18 09:28:18;;;;;;;20.85;3.40;;;14.90;99.90;;;;;;5120640;28;20071;-72
2022/10/18 09:31:24;;;;;;;18.48;3.17;;;14.90;99.90;;;;;;5120506;28;20047;-73
2022/10/18 09:34:01;;;;;;;17.05;3.33;;;15.00;99.90;;;;;;5120552;28;20039;-73
2022/10/18 09:36:36;;;;;;;19.92;3.22;;;15.00;99.90;;;;;;5120557;28;20039;-79
2022/10/18 09:39:14;;;;;;;22.20;3.20;;;15.10;99.90;;;;;;5085428;28;20040;-73
2022/10/18 09:42:01;;;;;;;15.77;3.00;;;15.20;99.90;;;;;;5120301;28;20043;-73
2022/10/18 09:44:37;;;;;;;19.20;2.60;;;15.30;99.90;;;;;;5120288;28;20039;-74
2022/10/18 09:47:17;;;;;;;13.00;2.70;;;15.40;99.90;;;;;;5120321;28;20043;-72
2022/10/18 09:49:54;;;;;;;15.05;2.90;;;15.50;99.90;;;;;;5101915;28;20047;-76
2022/10/18 09:52:27;;;;;;;16.45;3.17;;;15.50;99.90;;;;;;5121275;28;20039;-74
2022/10/18 09:55:00;;;;;;;15.60;2.88;;;15.70;99.90;;;;;;5120183;28;20050;-71
2022/10/18 09:57:41;;;;;;;13.85;2.63;;;15.80;99.90;;;;;;5120402;28;20416;-71
2022/10/18 10:00:23;;;;;;;16.15;3.35;;;15.80;99.90;;;;;;5119718;28;20151;-71
2022/10/18 10:02:48;;;;;;;25.55;2.80;;;15.90;99.90;;;;;;5120014;28;20434;-70
2022/10/18 10:05:14;;;;;;;19.13;2.55;;;16.10;99.90;;;;;;5119284;28;20039;-72
2022/10/18 10:07:43;;;;;;;11.63;2.05;;;16.20;99.90;;;;;;5112933;28;20127;-72
2022/10/18 10:10:22;;;;;;;15.15;1.90;;;16.10;99.90;;;;;;5112853;28;20039;-72
2022/10/18 10:13:04;;;;;;;16.10;2.22;;;16.20;99.90;;;;;;5099834;28;20040;-72
2022/10/18 10:15:31;;;;;;;17.50;1.70;;;16.30;99.90;;;;;;5109510;28;20044;-73
2022/10/18 10:18:05;;;;;;;20.80;2.28;;;16.40;99.90;;;;;;5119497;28;20043;-71
2022/10/18 10:20:47;;;;;;;11.13;2.00;;;16.50;99.90;;;;;;5100933;28;20044;-71
2022/10/18 10:23:19;;;;;;;18.50;2.25;;;16.80;99.90;;;;;;5103896;28;20052;-71
2022/10/18 10:25:53;;;;;;;14.75;1.85;;;17.20;99.90;;;;;;5119118;28;20047;-71
2022/10/18 10:28:22;;;;;;;12.57;1.55;;;17.30;99.90;;;;;;5118534;28;20420;-72
2022/10/18 10:30:48;;;;;;;18.58;1.80;;;17.20;99.90;;;;;;5118581;28;20069;-72
2022/10/18 10:33:37;;;;;;;14.50;1.70;;;17.30;99.90;;;;;;5119348;28;20053;-73
2022/10/18 10:36:14;;;;;;;14.45;1.58;;;17.30;99.90;;;;;;5118964;28;20040;-71
2022/10/18 10:38:41;;;;;;;14.05;1.63;;;17.30;99.90;;;;;;5119349;28;20134;-73
2022/10/18 10:41:18;;;;;;;10.50;1.10;;;17.20;99.90;;;;;;5119243;28;20085;-73
2022/10/18 10:43:44;;;;;;;13.48;2.25;;;17.20;99.90;;;;;;5119220;28;20035;-72
2022/10/18 10:46:13;;;;;;;13.55;1.77;;;17.40;99.90;;;;;;5119087;28;20043;-71
2022/10/18 10:48:58;;;;;;;13.35;1.92;;;17.70;99.90;;;;;;5118781;28;20040;-71
2022/10/18 10:51:37;;;;;;;12.32;1.23;;;17.60;99.80;;;;;;5118988;28;20075;-71
2022/10/18 10:54:13;;;;;;;14.93;1.52;;;17.60;99.30;;;;;;5118822;28;20035;-72
2022/10/18 10:56:59;;;;;;;;;;;17.70;99.70;;;;;;5119164;28;20040;-69
2022/10/18 10:59:30;;;;;;;12.75;1.40;;;17.90;99.20;;;;;;5102397;28;20240;-73
2022/10/18 11:02:16;;;;;;;9.60;1.48;;;18.00;99.40;;;;;;5100831;28;20036;-72
2022/10/18 11:04:46;;;;;;;7.65;1.20;;;18.20;99.20;;;;;;5118375;28;20048;-71
2022/10/18 11:07:21;;;;;;;11.85;1.48;;;18.30;99.00;;;;;;5118441;28;20071;-71
2022/10/18 11:10:11;;;;;;;10.45;1.30;;;18.50;99.00;;;;;;5118620;28;20046;-72
2022/10/18 11:12:43;;;;;;;11.25;1.20;;;18.60;98.60;;;;;;5118343;28;20039;-72
2022/10/18 11:15:10;;;;;;;12.75;1.27;;;18.90;98.80;;;;;;5118169;28;20044;-72
2022/10/18 11:17:45;;;;;;;9.82;1.40;;;19.50;98.50;;;;;;5118389;28;20141;-72
2022/10/18 11:20:20;;;;;;;13.95;1.50;;;19.50;98.30;;;;;;5118462;28;20089;-72
2022/10/18 11:22:59;;;;;;;11.10;1.20;;;19.30;98.00;;;;;;5100165;28;20345;-72
2022/10/18 11:25:35;;;;;;;13.65;1.35;;;19.30;98.20;;;;;;5118330;28;20075;-71
2022/10/18 11:28:10;;;;;;;9.85;1.23;;;18.60;98.20;;;;;;5118355;28;20039;-72
2022/10/18 11:30:47;;;;;;;13.50;1.05;;;18.50;98.40;;;;;;5118799;28;20374;-71
2022/10/18 11:33:38;;;;;;;8.50;1.08;;;18.40;98.20;;;;;;5117905;28;20424;-71
2022/10/18 11:36:13;;;;;;;7.75;1.00;;;18.40;98.50;;;;;;5117696;28;20044;-71
2022/10/18 11:38:47;;;;;;;10.95;1.48;;;19.00;98.30;;;;;;5118111;28;20088;-71
2022/10/18 11:41:29;;;;;;;10.90;1.50;;;19.50;97.90;;;;;;5118008;28;20035;-71
2022/10/18 11:43:57;;;;;;;7.60;0.90;;;19.60;97.60;;;;;;5118031;28;20039;-72
2022/10/18 11:46:34;;;;;;;9.82;1.23;;;19.50;97.00;;;;;;5117498;28;20042;-72
2022/10/18 11:49:39;;;;;;;12.35;1.00;;;19.40;96.80;;;;;;5117753;28;20050;-71
2022/10/18 11:52:10;;;;;;;9.07;1.13;;;19.20;96.90;;;;;;5034992;28;20077;-72
2022/10/18 11:54:51;;;;;;;10.88;1.40;;;19.50;97.50;;;;;;5018744;28;20045;-72
2022/10/18 11:57:27;;;;;;;10.23;1.30;;;19.70;97.50;;;;;;5085095;28;20079;-72
2022/10/18 12:00:21;;;;;;;7.97;1.30;;;19.70;97.20;;;;;;5117761;28;20110;-71
2022/10/18 12:02:56;;;;;;;14.75;1.30;;;19.70;97.30;;;;;;5117653;28;20043;-72
2022/10/18 12:05:23;;;;;;;11.27;1.48;;;20.30;97.10;;;;;;5098919;28;20053;-71
2022/10/18 12:07:59;;;;;;;11.07;1.30;;;20.20;96.60;;;;;;5100016;28;20040;-72
2022/10/18 12:10:29;;;;;;;13.90;1.15;;;20.20;97.00;;;;;;5117524;28;20039;-77
2022/10/18 12:13:02;;;;;;;11.57;1.38;;;19.90;96.80;;;;;;5117401;28;20336;-80
2022/10/18 12:15:30;;;;;;;8.23;1.38;;;19.30;97.10;;;;;;5117109;28;20043;-80
2022/10/18 12:18:06;;;;;;;13.35;1.30;;;18.90;97.20;;;;;;5099473;28;20047;-77
2022/10/18 12:20:45;;;;;;;9.65;1.40;;;19.20;97.60;;;;;;5117301;28;20480;-84
2022/10/18 12:23:29;;;;;;;8.43;1.10;;;19.30;97.20;;;;;;5098791;28;20056;-84
2022/10/18 12:26:00;;;;;;;9.40;0.88;;;19.40;97.40;;;;;;5117353;28;20039;-84
2022/10/18 12:28:59;;;;;;;11.60;1.45;;;19.80;97.30;;;;;;5117400;28;20036;-83
2022/10/18 12:31:33;;;;;;;9.18;1.50;;;19.90;96.90;;;;;;5088600;28;20056;-84
2022/10/18 12:34:17;;;;;;;13.07;2.13;;;19.80;97.00;;;;;;5117808;28;20051;-89
2022/10/18 12:37:10;;;;;;;14.63;1.63;;;19.40;96.90;;;;;;5116469;28;20331;-85
2022/10/18 12:40:11;;;;;;;11.00;1.55;;;19.30;96.90;;;;;;5117265;28;20047;-72
2022/10/18 12:42:43;;;;;;;8.50;1.20;;;19.70;96.60;;;;;;5078840;28;20050;-72
2022/10/18 12:45:21;;;;;;;10.90;1.15;;;20.00;95.60;;;;;;5117171;28;20036;-71
2022/10/18 12:47:47;;;;;;;10.35;1.50;;;19.90;96.10;;;;;;5099116;28;20354;-71
2022/10/18 12:50:28;;;;;;;11.20;1.58;;;20.10;95.90;;;;;;5117027;28;20047;-71